sensor_id;sensor_type;location;lat;lon;timestamp;P1;durP1;ratioP1;P2;durP2;ratioP2
30647;SDS011;17683;53.360;9.736;2024-01-15T00:02:08;8.55;;;1.70;;
30647;SDS011;17683;53.360;9.736;2024-01-15T00:04:37;16.27;;;2.42;;
30647;SDS011;17683;53.360;9.736;2024-01-15T00:07:06;7.40;;;1.55;;
30647;SDS011;17683;53.360;9.736;2024-01-15T00:09:33;10.93;;;1.60;;
30647;SDS011;17683;53.360;9.736;2024-01-15T00:11:59;10.05;;;1.67;;
30647;SDS011;17683;53.360;9.736;2024-01-15T00:14:26;12.40;;;1.85;;
30647;SDS011;17683;53.360;9.736;2024-01-15T00:16:52;9.32;;;1.67;;
30647;SDS011;17683;53.360;9.736;2024-01-15T00:19:20;8.52;;;1.70;;
30647;SDS011;17683;53.360;9.736;2024-01-15T00:21:46;15.63;;;2.25;;
30647;SDS011;17683;53.360;9.736;2024-01-15T00:24:12;5.35;;;1.60;;
30647;SDS011;17683;53.360;9.736;2024-01-15T00:26:39;7.55;;;1.92;;
30647;SDS011;17683;53.360;9.736;2024-01-15T00:29:06;7.97;;;1.75;;
30647;SDS011;17683;53.360;9.736;2024-01-15T00:31:35;8.07;;;1.50;;
30647;SDS011;17683;53.360;9.736;2024-01-15T00:34:01;13.98;;;1.75;;
30647;SDS011;17683;53.360;9.736;2024-01-15T00:36:27;10.52;;;1.98;;
30647;SDS011;17683;53.360;9.736;2024-01-15T00:38:53;8.77;;;1.73;;
30647;SDS011;17683;53.360;9.736;2024-01-15T00:41:19;12.02;;;1.70;;
30647;SDS011;17683;53.360;9.736;2024-01-15T00:43:45;12.80;;;2.13;;
30647;SDS011;17683;53.360;9.736;2024-01-15T00:46:11;14.07;;;1.55;;
30647;SDS011;17683;53.360;9.736;2024-01-15T00:48:37;7.07;;;1.63;;
30647;SDS011;17683;53.360;9.736;2024-01-15T00:51:06;10.35;;;1.52;;
30647;SDS011;17683;53.360;9.736;2024-01-15T00:53:32;12.60;;;2.10;;
30647;SDS011;17683;53.360;9.736;2024-01-15T00:55:58;8.63;;;1.60;;
30647;SDS011;17683;53.360;9.736;2024-01-15T00:58:23;14.98;;;1.70;;
30647;SDS011;17683;53.360;9.736;2024-01-15T01:00:49;6.43;;;1.55;;
30647;SDS011;17683;53.360;9.736;2024-01-15T01:03:15;10.10;;;2.40;;
30647;SDS011;17683;53.360;9.736;2024-01-15T01:05:41;16.33;;;2.03;;
30647;SDS011;17683;53.360;9.736;2024-01-15T01:08:06;16.15;;;1.60;;
30647;SDS011;17683;53.360;9.736;2024-01-15T01:10:32;15.57;;;2.33;;
30647;SDS011;17683;53.360;9.736;2024-01-15T01:12:58;9.82;;;1.88;;
30647;SDS011;17683;53.360;9.736;2024-01-15T01:15:24;13.95;;;1.77;;
30647;SDS011;17683;53.360;9.736;2024-01-15T01:17:49;9.20;;;1.83;;
30647;SDS011;17683;53.360;9.736;2024-01-15T01:20:15;10.85;;;2.65;;
30647;SDS011;17683;53.360;9.736;2024-01-15T01:22:41;15.23;;;3.60;;
30647;SDS011;17683;53.360;9.736;2024-01-15T01:25:07;13.93;;;2.63;;
30647;SDS011;17683;53.360;9.736;2024-01-15T01:27:34;10.65;;;2.08;;
30647;SDS011;17683;53.360;9.736;2024-01-15T01:30:00;10.80;;;1.85;;
30647;SDS011;17683;53.360;9.736;2024-01-15T01:32:26;8.13;;;1.65;;
30647;SDS011;17683;53.360;9.736;2024-01-15T01:34:52;6.57;;;1.92;;
30647;SDS011;17683;53.360;9.736;2024-01-15T01:37:18;11.20;;;1.80;;
30647;SDS011;17683;53.360;9.736;2024-01-15T01:39:43;10.30;;;1.98;;
30647;SDS011;17683;53.360;9.736;2024-01-15T01:42:10;8.60;;;1.48;;
30647;SDS011;17683;53.360;9.736;2024-01-15T01:44:36;12.38;;;1.70;;
30647;SDS011;17683;53.360;9.736;2024-01-15T01:47:02;11.52;;;2.10;;
30647;SDS011;17683;53.360;9.736;2024-01-15T01:49:29;15.27;;;2.20;;
30647;SDS011;17683;53.360;9.736;2024-01-15T01:51:58;8.73;;;1.52;;
30647;SDS011;17683;53.360;9.736;2024-01-15T01:54:26;10.40;;;2.15;;
30647;SDS011;17683;53.360;9.736;2024-01-15T01:56:55;6.15;;;1.52;;
30647;SDS011;17683;53.360;9.736;2024-01-15T01:59:22;6.00;;;1.83;;
30647;SDS011;17683;53.360;9.736;2024-01-15T02:01:50;7.80;;;1.67;;
30647;SDS011;17683;53.360;9.736;2024-01-15T02:04:18;8.27;;;2.10;;
30647;SDS011;17683;53.360;9.736;2024-01-15T02:06:44;7.35;;;1.33;;
30647;SDS011;17683;53.360;9.736;2024-01-15T02:09:10;11.77;;;1.20;;
30647;SDS011;17683;53.360;9.736;2024-01-15T02:11:40;3.55;;;1.30;;
30647;SDS011;17683;53.360;9.736;2024-01-15T02:14:06;10.20;;;2.20;;
30647;SDS011;17683;53.360;9.736;2024-01-15T02:16:33;9.07;;;1.35;;
30647;SDS011;17683;53.360;9.736;2024-01-15T02:18:59;7.47;;;1.35;;
30647;SDS011;17683;53.360;9.736;2024-01-15T02:21:25;8.70;;;1.60;;
30647;SDS011;17683;53.360;9.736;2024-01-15T02:23:53;2.65;;;1.00;;
30647;SDS011;17683;53.360;9.736;2024-01-15T02:26:20;7.45;;;1.40;;
30647;SDS011;17683;53.360;9.736;2024-01-15T02:28:46;7.78;;;1.38;;
30647;SDS011;17683;53.360;9.736;2024-01-15T02:31:13;12.20;;;2.22;;
30647;SDS011;17683;53.360;9.736;2024-01-15T02:33:39;12.45;;;2.00;;
30647;SDS011;17683;53.360;9.736;2024-01-15T02:36:05;6.93;;;1.60;;
30647;SDS011;17683;53.360;9.736;2024-01-15T02:38:31;11.95;;;1.73;;
30647;SDS011;17683;53.360;9.736;2024-01-15T02:40:57;9.38;;;1.77;;
30647;SDS011;17683;53.360;9.736;2024-01-15T02:43:23;7.30;;;1.35;;
30647;SDS011;17683;53.360;9.736;2024-01-15T02:45:49;7.72;;;1.90;;
30647;SDS011;17683;53.360;9.736;2024-01-15T02:48:15;11.50;;;2.40;;
30647;SDS011;17683;53.360;9.736;2024-01-15T02:50:40;10.73;;;2.08;;
30647;SDS011;17683;53.360;9.736;2024-01-15T02:53:06;6.53;;;1.60;;
30647;SDS011;17683;53.360;9.736;2024-01-15T02:55:32;8.50;;;1.98;;
30647;SDS011;17683;53.360;9.736;2024-01-15T02:57:57;7.35;;;1.45;;
30647;SDS011;17683;53.360;9.736;2024-01-15T03:00:24;8.90;;;1.63;;
30647;SDS011;17683;53.360;9.736;2024-01-15T03:02:50;12.27;;;2.63;;
30647;SDS011;17683;53.360;9.736;2024-01-15T03:05:16;9.63;;;1.83;;
30647;SDS011;17683;53.360;9.736;2024-01-15T03:07:43;9.40;;;1.10;;
30647;SDS011;17683;53.360;9.736;2024-01-15T03:10:09;8.45;;;2.45;;
30647;SDS011;17683;53.360;9.736;2024-01-15T03:12:34;8.70;;;1.70;;
30647;SDS011;17683;53.360;9.736;2024-01-15T03:15:00;8.45;;;1.42;;
30647;SDS011;17683;53.360;9.736;2024-01-15T03:17:26;11.15;;;1.77;;
30647;SDS011;17683;53.360;9.736;2024-01-15T03:19:52;9.05;;;1.92;;
30647;SDS011;17683;53.360;9.736;2024-01-15T03:22:18;12.82;;;1.60;;
30647;SDS011;17683;53.360;9.736;2024-01-15T03:24:44;11.73;;;1.92;;
30647;SDS011;17683;53.360;9.736;2024-01-15T03:27:09;12.93;;;1.65;;
30647;SDS011;17683;53.360;9.736;2024-01-15T03:29:35;8.85;;;1.52;;
30647;SDS011;17683;53.360;9.736;2024-01-15T03:32:01;10.77;;;3.08;;
30647;SDS011;17683;53.360;9.736;2024-01-15T03:34:27;10.15;;;1.85;;
30647;SDS011;17683;53.360;9.736;2024-01-15T03:36:53;9.27;;;1.90;;
30647;SDS011;17683;53.360;9.736;2024-01-15T03:39:18;5.57;;;1.67;;
30647;SDS011;17683;53.360;9.736;2024-01-15T03:41:44;19.17;;;2.63;;
30647;SDS011;17683;53.360;9.736;2024-01-15T03:44:10;14.57;;;2.30;;
30647;SDS011;17683;53.360;9.736;2024-01-15T03:46:35;10.15;;;1.95;;
30647;SDS011;17683;53.360;9.736;2024-01-15T03:49:01;7.72;;;2.15;;
30647;SDS011;17683;53.360;9.736;2024-01-15T03:51:27;10.98;;;1.85;;
30647;SDS011;17683;53.360;9.736;2024-01-15T03:53:53;8.63;;;1.70;;
30647;SDS011;17683;53.360;9.736;2024-01-15T03:56:18;25.92;;;3.83;;
30647;SDS011;17683;53.360;9.736;2024-01-15T03:58:44;16.73;;;2.10;;
30647;SDS011;17683;53.360;9.736;2024-01-15T04:01:10;15.57;;;2.25;;
30647;SDS011;17683;53.360;9.736;2024-01-15T04:03:36;7.07;;;2.38;;
30647;SDS011;17683;53.360;9.736;2024-01-15T04:06:02;24.05;;;4.68;;
30647;SDS011;17683;53.360;9.736;2024-01-15T04:08:29;17.08;;;2.03;;
30647;SDS011;17683;53.360;9.736;2024-01-15T04:10:54;12.98;;;1.90;;
30647;SDS011;17683;53.360;9.736;2024-01-15T04:13:20;17.38;;;2.88;;
30647;SDS011;17683;53.360;9.736;2024-01-15T04:15:47;14.15;;;2.20;;
30647;SDS011;17683;53.360;9.736;2024-01-15T04:18:12;12.10;;;2.20;;
30647;SDS011;17683;53.360;9.736;2024-01-15T04:20:38;11.73;;;2.42;;
30647;SDS011;17683;53.360;9.736;2024-01-15T04:23:04;18.42;;;3.78;;
30647;SDS011;17683;53.360;9.736;2024-01-15T04:25:30;18.60;;;2.65;;
30647;SDS011;17683;53.360;9.736;2024-01-15T04:27:56;8.65;;;2.53;;
30647;SDS011;17683;53.360;9.736;2024-01-15T04:30:22;16.00;;;3.58;;
30647;SDS011;17683;53.360;9.736;2024-01-15T04:32:47;19.17;;;2.63;;
30647;SDS011;17683;53.360;9.736;2024-01-15T04:35:13;11.63;;;2.20;;
30647;SDS011;17683;53.360;9.736;2024-01-15T04:37:39;16.88;;;3.35;;
30647;SDS011;17683;53.360;9.736;2024-01-15T04:40:06;14.13;;;2.75;;
30647;SDS011;17683;53.360;9.736;2024-01-15T04:42:34;13.05;;;2.17;;
30647;SDS011;17683;53.360;9.736;2024-01-15T04:45:00;12.02;;;2.05;;
30647;SDS011;17683;53.360;9.736;2024-01-15T04:47:26;23.83;;;3.90;;
30647;SDS011;17683;53.360;9.736;2024-01-15T04:49:52;8.32;;;2.17;;
30647;SDS011;17683;53.360;9.736;2024-01-15T04:52:17;12.95;;;2.63;;
30647;SDS011;17683;53.360;9.736;2024-01-15T04:54:43;22.75;;;3.83;;
30647;SDS011;17683;53.360;9.736;2024-01-15T04:57:09;9.70;;;2.47;;
30647;SDS011;17683;53.360;9.736;2024-01-15T04:59:35;20.65;;;4.55;;
30647;SDS011;17683;53.360;9.736;2024-01-15T05:02:01;11.20;;;2.13;;
30647;SDS011;17683;53.360;9.736;2024-01-15T05:04:27;17.15;;;2.88;;
30647;SDS011;17683;53.360;9.736;2024-01-15T05:06:53;14.82;;;2.50;;
30647;SDS011;17683;53.360;9.736;2024-01-15T05:09:20;8.50;;;2.42;;
30647;SDS011;17683;53.360;9.736;2024-01-15T05:11:46;14.43;;;2.63;;
30647;SDS011;17683;53.360;9.736;2024-01-15T05:14:12;19.35;;;4.28;;
30647;SDS011;17683;53.360;9.736;2024-01-15T05:16:38;20.50;;;2.58;;
30647;SDS011;17683;53.360;9.736;2024-01-15T05:19:05;11.73;;;2.35;;
30647;SDS011;17683;53.360;9.736;2024-01-15T05:21:32;13.35;;;2.25;;
30647;SDS011;17683;53.360;9.736;2024-01-15T05:23:58;11.38;;;1.98;;
30647;SDS011;17683;53.360;9.736;2024-01-15T05:26:23;17.23;;;2.78;;
30647;SDS011;17683;53.360;9.736;2024-01-15T05:28:49;15.32;;;2.17;;
30647;SDS011;17683;53.360;9.736;2024-01-15T05:31:15;15.57;;;2.10;;
30647;SDS011;17683;53.360;9.736;2024-01-15T05:33:41;14.70;;;2.45;;
30647;SDS011;17683;53.360;9.736;2024-01-15T05:36:07;10.15;;;2.67;;
30647;SDS011;17683;53.360;9.736;2024-01-15T05:38:32;15.98;;;2.42;;
30647;SDS011;17683;53.360;9.736;2024-01-15T05:40:58;19.50;;;2.72;;
30647;SDS011;17683;53.360;9.736;2024-01-15T05:43:24;19.40;;;2.80;;
30647;SDS011;17683;53.360;9.736;2024-01-15T05:45:50;12.32;;;2.05;;
30647;SDS011;17683;53.360;9.736;2024-01-15T05:48:15;19.33;;;2.58;;
30647;SDS011;17683;53.360;9.736;2024-01-15T05:50:41;16.48;;;2.97;;
30647;SDS011;17683;53.360;9.736;2024-01-15T05:53:07;17.45;;;1.95;;
30647;SDS011;17683;53.360;9.736;2024-01-15T05:55:33;11.43;;;2.40;;
30647;SDS011;17683;53.360;9.736;2024-01-15T05:58:00;18.23;;;3.17;;
30647;SDS011;17683;53.360;9.736;2024-01-15T06:00:25;10.98;;;3.72;;
30647;SDS011;17683;53.360;9.736;2024-01-15T06:02:51;20.33;;;2.78;;
30647;SDS011;17683;53.360;9.736;2024-01-15T06:05:17;10.35;;;3.17;;
30647;SDS011;17683;53.360;9.736;2024-01-15T06:07:43;15.63;;;2.40;;
30647;SDS011;17683;53.360;9.736;2024-01-15T06:10:09;15.35;;;2.63;;
30647;SDS011;17683;53.360;9.736;2024-01-15T06:12:35;16.20;;;2.60;;
30647;SDS011;17683;53.360;9.736;2024-01-15T06:15:00;17.90;;;3.10;;
30647;SDS011;17683;53.360;9.736;2024-01-15T06:17:27;25.30;;;2.75;;
30647;SDS011;17683;53.360;9.736;2024-01-15T06:19:53;12.93;;;2.92;;
30647;SDS011;17683;53.360;9.736;2024-01-15T06:22:18;16.13;;;2.55;;
30647;SDS011;17683;53.360;9.736;2024-01-15T06:24:44;20.13;;;4.15;;
30647;SDS011;17683;53.360;9.736;2024-01-15T06:27:10;16.23;;;1.98;;
30647;SDS011;17683;53.360;9.736;2024-01-15T06:29:37;13.50;;;3.08;;
30647;SDS011;17683;53.360;9.736;2024-01-15T06:32:04;20.85;;;2.47;;
30647;SDS011;17683;53.360;9.736;2024-01-15T06:34:30;24.60;;;3.75;;
30647;SDS011;17683;53.360;9.736;2024-01-15T06:36:55;9.30;;;2.50;;
30647;SDS011;17683;53.360;9.736;2024-01-15T06:39:21;14.98;;;2.17;;
30647;SDS011;17683;53.360;9.736;2024-01-15T06:41:47;14.18;;;2.40;;
30647;SDS011;17683;53.360;9.736;2024-01-15T06:44:13;19.83;;;2.63;;
30647;SDS011;17683;53.360;9.736;2024-01-15T06:46:42;13.75;;;2.03;;
30647;SDS011;17683;53.360;9.736;2024-01-15T06:49:08;17.65;;;2.97;;
30647;SDS011;17683;53.360;9.736;2024-01-15T06:51:35;9.82;;;2.20;;
30647;SDS011;17683;53.360;9.736;2024-01-15T06:54:01;15.77;;;2.58;;
30647;SDS011;17683;53.360;9.736;2024-01-15T06:56:27;11.93;;;2.33;;
30647;SDS011;17683;53.360;9.736;2024-01-15T06:58:52;12.15;;;1.80;;
30647;SDS011;17683;53.360;9.736;2024-01-15T07:01:18;18.02;;;1.75;;
30647;SDS011;17683;53.360;9.736;2024-01-15T07:03:44;7.88;;;1.70;;
30647;SDS011;17683;53.360;9.736;2024-01-15T07:06:10;12.52;;;2.20;;
30647;SDS011;17683;53.360;9.736;2024-01-15T07:08:36;12.52;;;2.00;;
30647;SDS011;17683;53.360;9.736;2024-01-15T07:11:06;10.48;;;2.08;;
30647;SDS011;17683;53.360;9.736;2024-01-15T07:13:32;10.25;;;1.95;;
30647;SDS011;17683;53.360;9.736;2024-01-15T07:15:58;12.95;;;2.45;;
30647;SDS011;17683;53.360;9.736;2024-01-15T07:18:24;6.18;;;2.00;;
30647;SDS011;17683;53.360;9.736;2024-01-15T07:20:50;9.40;;;1.85;;
30647;SDS011;17683;53.360;9.736;2024-01-15T07:23:16;10.10;;;1.67;;
30647;SDS011;17683;53.360;9.736;2024-01-15T07:25:42;8.30;;;2.25;;
30647;SDS011;17683;53.360;9.736;2024-01-15T07:28:08;14.68;;;2.10;;
30647;SDS011;17683;53.360;9.736;2024-01-15T07:30:34;4.38;;;1.35;;
30647;SDS011;17683;53.360;9.736;2024-01-15T07:33:00;10.88;;;1.75;;
30647;SDS011;17683;53.360;9.736;2024-01-15T07:35:26;7.95;;;1.52;;
30647;SDS011;17683;53.360;9.736;2024-01-15T07:37:52;11.48;;;1.60;;
30647;SDS011;17683;53.360;9.736;2024-01-15T07:40:18;6.68;;;1.50;;
30647;SDS011;17683;53.360;9.736;2024-01-15T07:42:44;10.70;;;2.00;;
30647;SDS011;17683;53.360;9.736;2024-01-15T07:45:10;8.48;;;1.60;;
30647;SDS011;17683;53.360;9.736;2024-01-15T07:47:36;9.02;;;1.70;;
30647;SDS011;17683;53.360;9.736;2024-01-15T07:50:02;6.60;;;1.95;;
30647;SDS011;17683;53.360;9.736;2024-01-15T07:52:28;8.65;;;1.50;;
30647;SDS011;17683;53.360;9.736;2024-01-15T07:54:55;12.65;;;2.20;;
30647;SDS011;17683;53.360;9.736;2024-01-15T07:57:21;10.30;;;2.25;;
30647;SDS011;17683;53.360;9.736;2024-01-15T07:59:47;6.22;;;1.35;;
30647;SDS011;17683;53.360;9.736;2024-01-15T08:02:13;11.73;;;1.75;;
30647;SDS011;17683;53.360;9.736;2024-01-15T08:04:39;12.13;;;2.65;;
30647;SDS011;17683;53.360;9.736;2024-01-15T08:07:05;9.75;;;1.52;;
30647;SDS011;17683;53.360;9.736;2024-01-15T08:09:34;4.90;;;1.20;;
30647;SDS011;17683;53.360;9.736;2024-01-15T08:12:00;5.88;;;1.13;;
30647;SDS011;17683;53.360;9.736;2024-01-15T08:14:26;4.25;;;1.13;;
30647;SDS011;17683;53.360;9.736;2024-01-15T08:16:51;5.32;;;1.88;;
30647;SDS011;17683;53.360;9.736;2024-01-15T08:19:17;5.45;;;1.40;;
30647;SDS011;17683;53.360;9.736;2024-01-15T08:21:45;6.35;;;1.23;;
30647;SDS011;17683;53.360;9.736;2024-01-15T08:24:10;9.20;;;1.30;;
30647;SDS011;17683;53.360;9.736;2024-01-15T08:26:39;4.30;;;1.20;;
30647;SDS011;17683;53.360;9.736;2024-01-15T08:29:04;3.42;;;0.90;;
30647;SDS011;17683;53.360;9.736;2024-01-15T08:31:30;3.17;;;1.33;;
30647;SDS011;17683;53.360;9.736;2024-01-15T08:33:56;5.07;;;1.08;;
30647;SDS011;17683;53.360;9.736;2024-01-15T08:36:22;6.70;;;1.00;;
30647;SDS011;17683;53.360;9.736;2024-01-15T08:38:49;4.57;;;1.08;;
30647;SDS011;17683;53.360;9.736;2024-01-15T08:41:15;3.60;;;0.82;;
30647;SDS011;17683;53.360;9.736;2024-01-15T08:43:41;5.13;;;1.23;;
30647;SDS011;17683;53.360;9.736;2024-01-15T08:46:09;8.48;;;1.42;;
30647;SDS011;17683;53.360;9.736;2024-01-15T08:48:35;3.67;;;0.93;;
30647;SDS011;17683;53.360;9.736;2024-01-15T08:51:01;3.15;;;0.95;;
30647;SDS011;17683;53.360;9.736;2024-01-15T08:53:27;5.13;;;0.80;;
30647;SDS011;17683;53.360;9.736;2024-01-15T08:55:53;3.78;;;1.08;;
30647;SDS011;17683;53.360;9.736;2024-01-15T08:58:19;4.00;;;0.90;;
30647;SDS011;17683;53.360;9.736;2024-01-15T09:00:45;11.55;;;1.10;;
30647;SDS011;17683;53.360;9.736;2024-01-15T09:03:11;6.80;;;1.30;;
30647;SDS011;17683;53.360;9.736;2024-01-15T09:05:37;6.47;;;1.70;;
30647;SDS011;17683;53.360;9.736;2024-01-15T09:08:06;2.15;;;0.75;;
30647;SDS011;17683;53.360;9.736;2024-01-15T09:10:31;5.75;;;1.00;;
30647;SDS011;17683;53.360;9.736;2024-01-15T09:12:57;2.60;;;0.70;;
30647;SDS011;17683;53.360;9.736;2024-01-15T09:15:23;9.07;;;1.00;;
30647;SDS011;17683;53.360;9.736;2024-01-15T09:17:49;8.77;;;0.95;;
30647;SDS011;17683;53.360;9.736;2024-01-15T09:20:15;6.28;;;0.90;;
30647;SDS011;17683;53.360;9.736;2024-01-15T09:22:40;3.75;;;1.08;;
30647;SDS011;17683;53.360;9.736;2024-01-15T09:25:07;4.60;;;1.30;;
30647;SDS011;17683;53.360;9.736;2024-01-15T09:27:36;13.20;;;1.38;;
30647;SDS011;17683;53.360;9.736;2024-01-15T09:30:03;1.48;;;0.85;;
30647;SDS011;17683;53.360;9.736;2024-01-15T09:32:30;4.95;;;1.13;;
30647;SDS011;17683;53.360;9.736;2024-01-15T09:34:56;4.72;;;1.17;;
30647;SDS011;17683;53.360;9.736;2024-01-15T09:37:22;4.63;;;0.95;;
30647;SDS011;17683;53.360;9.736;2024-01-15T09:39:48;9.40;;;1.30;;
30647;SDS011;17683;53.360;9.736;2024-01-15T09:42:15;9.55;;;2.08;;
30647;SDS011;17683;53.360;9.736;2024-01-15T09:44:45;6.95;;;1.20;;
30647;SDS011;17683;53.360;9.736;2024-01-15T09:47:11;6.00;;;1.00;;
30647;SDS011;17683;53.360;9.736;2024-01-15T09:49:38;7.53;;;1.10;;
30647;SDS011;17683;53.360;9.736;2024-01-15T09:52:05;8.82;;;1.30;;
30647;SDS011;17683;53.360;9.736;2024-01-15T09:54:33;5.30;;;1.60;;
30647;SDS011;17683;53.360;9.736;2024-01-15T09:57:00;5.25;;;1.08;;
30647;SDS011;17683;53.360;9.736;2024-01-15T09:59:29;11.55;;;1.80;;
30647;SDS011;17683;53.360;9.736;2024-01-15T10:01:56;4.72;;;0.90;;
30647;SDS011;17683;53.360;9.736;2024-01-15T10:04:23;7.05;;;1.13;;
30647;SDS011;17683;53.360;9.736;2024-01-15T10:06:50;4.97;;;0.85;;
30647;SDS011;17683;53.360;9.736;2024-01-15T10:09:17;8.18;;;1.45;;
30647;SDS011;17683;53.360;9.736;2024-01-15T10:11:43;4.53;;;1.30;;
30647;SDS011;17683;53.360;9.736;2024-01-15T10:14:10;2.63;;;0.63;;
30647;SDS011;17683;53.360;9.736;2024-01-15T10:16:40;1.83;;;0.75;;
30647;SDS011;17683;53.360;9.736;2024-01-15T10:19:09;5.80;;;0.98;;
30647;SDS011;17683;53.360;9.736;2024-01-15T10:21:35;2.50;;;0.55;;
30647;SDS011;17683;53.360;9.736;2024-01-15T10:24:05;1.30;;;0.47;;
30647;SDS011;17683;53.360;9.736;2024-01-15T10:26:31;2.70;;;0.85;;
30647;SDS011;17683;53.360;9.736;2024-01-15T10:29:00;3.83;;;1.20;;
30647;SDS011;17683;53.360;9.736;2024-01-15T10:31:27;3.20;;;0.75;;
30647;SDS011;17683;53.360;9.736;2024-01-15T10:33:54;2.45;;;0.70;;
30647;SDS011;17683;53.360;9.736;2024-01-15T10:36:45;2.55;;;0.70;;
30647;SDS011;17683;53.360;9.736;2024-01-15T10:39:13;4.38;;;1.00;;
30647;SDS011;17683;53.360;9.736;2024-01-15T10:41:42;2.95;;;0.90;;
30647;SDS011;17683;53.360;9.736;2024-01-15T10:44:07;6.13;;;1.08;;
30647;SDS011;17683;53.360;9.736;2024-01-15T10:46:33;2.00;;;0.75;;
30647;SDS011;17683;53.360;9.736;2024-01-15T10:49:01;3.08;;;0.70;;
30647;SDS011;17683;53.360;9.736;2024-01-15T10:51:27;1.83;;;1.30;;
30647;SDS011;17683;53.360;9.736;2024-01-15T10:53:53;4.90;;;1.20;;
30647;SDS011;17683;53.360;9.736;2024-01-15T10:56:21;3.55;;;1.27;;
30647;SDS011;17683;53.360;9.736;2024-01-15T10:58:48;5.40;;;0.90;;
30647;SDS011;17683;53.360;9.736;2024-01-15T11:01:15;4.13;;;1.20;;
30647;SDS011;17683;53.360;9.736;2024-01-15T11:03:42;3.60;;;0.90;;
30647;SDS011;17683;53.360;9.736;2024-01-15T11:06:18;2.53;;;0.93;;
30647;SDS011;17683;53.360;9.736;2024-01-15T11:08:46;1.92;;;0.98;;
30647;SDS011;17683;53.360;9.736;2024-01-15T11:11:16;5.97;;;1.40;;
30647;SDS011;17683;53.360;9.736;2024-01-15T11:13:42;4.10;;;1.08;;
30647;SDS011;17683;53.360;9.736;2024-01-15T11:16:11;7.63;;;1.38;;
30647;SDS011;17683;53.360;9.736;2024-01-15T11:21:23;7.35;;;1.25;;
30647;SDS011;17683;53.360;9.736;2024-01-15T11:23:53;6.57;;;0.90;;
30647;SDS011;17683;53.360;9.736;2024-01-15T11:31:58;4.10;;;1.05;;
30647;SDS011;17683;53.360;9.736;2024-01-15T11:34:16;2.10;;;0.80;;
30647;SDS011;17683;53.360;9.736;2024-01-15T11:39:47;4.88;;;1.20;;
30647;SDS011;17683;53.360;9.736;2024-01-15T11:42:09;3.15;;;0.70;;
30647;SDS011;17683;53.360;9.736;2024-01-15T11:44:39;1.88;;;0.77;;
30647;SDS011;17683;53.360;9.736;2024-01-15T11:47:06;3.33;;;1.48;;
30647;SDS011;17683;53.360;9.736;2024-01-15T11:52:05;2.10;;;1.10;;
30647;SDS011;17683;53.360;9.736;2024-01-15T11:54:32;2.60;;;1.00;;
30647;SDS011;17683;53.360;9.736;2024-01-15T11:57:03;1.85;;;1.10;;
30647;SDS011;17683;53.360;9.736;2024-01-15T11:59:34;1.77;;;1.00;;
30647;SDS011;17683;53.360;9.736;2024-01-15T12:02:00;6.20;;;1.63;;
30647;SDS011;17683;53.360;9.736;2024-01-15T12:04:28;3.20;;;1.00;;
30647;SDS011;17683;53.360;9.736;2024-01-15T12:06:53;1.50;;;0.90;;
30647;SDS011;17683;53.360;9.736;2024-01-15T12:09:19;4.75;;;0.90;;
30647;SDS011;17683;53.360;9.736;2024-01-15T12:11:48;1.73;;;0.80;;
30647;SDS011;17683;53.360;9.736;2024-01-15T12:14:20;2.03;;;0.90;;
30647;SDS011;17683;53.360;9.736;2024-01-15T12:16:47;1.40;;;0.63;;
30647;SDS011;17683;53.360;9.736;2024-01-15T12:19:13;0.93;;;0.45;;
30647;SDS011;17683;53.360;9.736;2024-01-15T12:21:40;0.57;;;0.45;;
30647;SDS011;17683;53.360;9.736;2024-01-15T12:24:09;1.20;;;0.55;;
30647;SDS011;17683;53.360;9.736;2024-01-15T12:26:35;1.17;;;0.50;;
30647;SDS011;17683;53.360;9.736;2024-01-15T12:29:01;0.57;;;0.40;;
30647;SDS011;17683;53.360;9.736;2024-01-15T12:31:29;0.40;;;0.20;;
30647;SDS011;17683;53.360;9.736;2024-01-15T12:33:55;0.90;;;0.30;;
30647;SDS011;17683;53.360;9.736;2024-01-15T12:36:21;0.22;;;0.20;;
30647;SDS011;17683;53.360;9.736;2024-01-15T12:38:47;1.08;;;0.35;;
30647;SDS011;17683;53.360;9.736;2024-01-15T12:41:13;2.22;;;0.40;;
30647;SDS011;17683;53.360;9.736;2024-01-15T12:43:40;0.65;;;0.40;;
30647;SDS011;17683;53.360;9.736;2024-01-15T12:46:05;0.30;;;0.10;;
30647;SDS011;17683;53.360;9.736;2024-01-15T12:48:31;0.65;;;0.30;;
30647;SDS011;17683;53.360;9.736;2024-01-15T12:50:57;0.93;;;0.30;;
30647;SDS011;17683;53.360;9.736;2024-01-15T12:53:23;2.00;;;0.50;;
30647;SDS011;17683;53.360;9.736;2024-01-15T12:55:48;2.63;;;0.60;;
30647;SDS011;17683;53.360;9.736;2024-01-15T12:58:14;0.88;;;0.60;;
30647;SDS011;17683;53.360;9.736;2024-01-15T13:00:40;3.35;;;0.75;;
30647;SDS011;17683;53.360;9.736;2024-01-15T13:03:06;1.08;;;0.80;;
30647;SDS011;17683;53.360;9.736;2024-01-15T13:05:32;2.53;;;0.80;;
30647;SDS011;17683;53.360;9.736;2024-01-15T13:07:59;1.08;;;0.90;;
30647;SDS011;17683;53.360;9.736;2024-01-15T13:10:24;2.78;;;0.98;;
30647;SDS011;17683;53.360;9.736;2024-01-15T13:12:51;2.85;;;0.57;;
30647;SDS011;17683;53.360;9.736;2024-01-15T13:15:16;2.85;;;0.57;;
30647;SDS011;17683;53.360;9.736;2024-01-15T13:17:42;1.00;;;0.70;;
30647;SDS011;17683;53.360;9.736;2024-01-15T13:20:09;1.65;;;0.82;;
30647;SDS011;17683;53.360;9.736;2024-01-15T13:22:36;4.93;;;1.30;;
30647;SDS011;17683;53.360;9.736;2024-01-15T13:25:04;4.60;;;1.30;;
30647;SDS011;17683;53.360;9.736;2024-01-15T13:27:32;1.70;;;0.63;;
30647;SDS011;17683;53.360;9.736;2024-01-15T13:30:01;1.20;;;0.55;;
30647;SDS011;17683;53.360;9.736;2024-01-15T13:32:28;2.10;;;1.15;;
30647;SDS011;17683;53.360;9.736;2024-01-15T13:34:55;1.17;;;0.55;;
30647;SDS011;17683;53.360;9.736;2024-01-15T13:37:21;1.05;;;0.43;;
30647;SDS011;17683;53.360;9.736;2024-01-15T13:39:49;0.60;;;0.50;;
30647;SDS011;17683;53.360;9.736;2024-01-15T13:42:17;1.25;;;0.73;;
30647;SDS011;17683;53.360;9.736;2024-01-15T13:44:43;1.40;;;0.70;;
30647;SDS011;17683;53.360;9.736;2024-01-15T13:47:08;1.13;;;0.43;;
30647;SDS011;17683;53.360;9.736;2024-01-15T13:49:35;4.32;;;0.70;;
30647;SDS011;17683;53.360;9.736;2024-01-15T13:52:02;2.47;;;0.63;;
30647;SDS011;17683;53.360;9.736;2024-01-15T13:54:29;1.85;;;0.55;;
30647;SDS011;17683;53.360;9.736;2024-01-15T13:56:55;2.85;;;0.70;;
30647;SDS011;17683;53.360;9.736;2024-01-15T13:59:21;0.60;;;0.47;;
30647;SDS011;17683;53.360;9.736;2024-01-15T14:01:48;0.57;;;0.52;;
30647;SDS011;17683;53.360;9.736;2024-01-15T14:04:13;2.67;;;0.77;;
30647;SDS011;17683;53.360;9.736;2024-01-15T14:06:39;1.77;;;0.88;;
30647;SDS011;17683;53.360;9.736;2024-01-15T14:09:05;1.48;;;0.52;;
30647;SDS011;17683;53.360;9.736;2024-01-15T14:11:35;4.15;;;0.88;;
30647;SDS011;17683;53.360;9.736;2024-01-15T14:14:04;1.92;;;0.82;;
30647;SDS011;17683;53.360;9.736;2024-01-15T14:16:29;2.70;;;0.80;;
30647;SDS011;17683;53.360;9.736;2024-01-15T14:18:57;1.80;;;1.02;;
30647;SDS011;17683;53.360;9.736;2024-01-15T14:21:23;4.15;;;1.20;;
30647;SDS011;17683;53.360;9.736;2024-01-15T14:23:49;5.15;;;0.73;;
30647;SDS011;17683;53.360;9.736;2024-01-15T14:26:15;1.77;;;0.85;;
30647;SDS011;17683;53.360;9.736;2024-01-15T14:28:40;2.08;;;0.70;;
30647;SDS011;17683;53.360;9.736;2024-01-15T14:31:06;1.98;;;0.90;;
30647;SDS011;17683;53.360;9.736;2024-01-15T14:33:32;1.75;;;0.90;;
30647;SDS011;17683;53.360;9.736;2024-01-15T14:35:58;2.15;;;0.90;;
30647;SDS011;17683;53.360;9.736;2024-01-15T14:38:24;2.65;;;1.15;;
30647;SDS011;17683;53.360;9.736;2024-01-15T14:40:49;1.75;;;1.00;;
30647;SDS011;17683;53.360;9.736;2024-01-15T14:43:15;1.38;;;1.00;;
30647;SDS011;17683;53.360;9.736;2024-01-15T14:45:41;1.20;;;1.10;;
30647;SDS011;17683;53.360;9.736;2024-01-15T14:48:07;2.95;;;1.40;;
30647;SDS011;17683;53.360;9.736;2024-01-15T14:50:32;2.03;;;1.25;;
30647;SDS011;17683;53.360;9.736;2024-01-15T14:52:58;3.60;;;1.60;;